Time;durP1;ratioP1;P1;durP2;ratioP2;P2;SDS_P1;SDS_P2;PMS_P1;PMS_P2;Temp;Humidity;BMP_temperature;BMP_pressure;BME280_temperature;BME280_humidity;BME280_pressure;Samples;Min_cycle;Max_cycle;Signal;HPM_P1;HPM_P2
2024/04/17 00:01:58;;;;;;;;;;;18.40;70.40;;;;;;5397180;26;1857;-72
2024/04/17 00:04:24;;;;;;;;;;;18.30;70.30;;;;;;5399999;26;1804;-72
2024/04/17 00:06:49;;;;;;;;;;;18.40;70.40;;;;;;5399020;26;2002;-72
2024/04/17 00:09:15;;;;;;;;;;;18.30;70.30;;;;;;5403795;26;1856;-73
2024/04/17 00:11:41;;;;;;;;;;;18.30;70.40;;;;;;5390772;26;1696;-72
2024/04/17 00:14:06;;;;;;;;;;;18.30;70.40;;;;;;5396349;26;2132;-73
2024/04/17 00:16:32;;;;;;;;;;;18.30;70.40;;;;;;5369538;26;1335;-73
2024/04/17 00:18:57;;;;;;;;;;;18.40;70.40;;;;;;5397716;26;1963;-73
2024/04/17 00:21:23;;;;;;;;;;;18.30;70.40;;;;;;5394552;26;1832;-73
2024/04/17 00:23:48;;;;;;;;;;;18.30;70.40;;;;;;5393276;26;1538;-72
2024/04/17 00:26:14;;;;;;;;;;;18.30;70.40;;;;;;5394054;26;1927;-71
2024/04/17 00:28:39;;;;;;;;;;;18.30;70.40;;;;;;5402986;26;1942;-71
2024/04/17 00:31:05;;;;;;;;;;;18.30;70.40;;;;;;5391654;26;1957;-71
2024/04/17 00:33:31;;;;;;;;;;;18.30;70.40;;;;;;5393432;26;2046;-71
2024/04/17 00:35:56;;;;;;;;;;;18.30;71.20;;;;;;5391554;26;1876;-72
2024/04/17 00:38:22;;;;;;;;;;;18.30;70.40;;;;;;5391449;26;1762;-71
2024/04/17 00:40:47;;;;;;;;;;;18.30;70.40;;;;;;5394210;26;1647;-71
2024/04/17 00:43:13;;;;;;;;;;;18.30;70.40;;;;;;5396453;26;1930;-71
2024/04/17 00:45:39;;;;;;;;;;;18.30;70.40;;;;;;5388411;26;1518;-72
2024/04/17 00:48:04;;;;;;;;;;;18.30;70.40;;;;;;5391930;26;1446;-71
2024/04/17 00:50:30;;;;;;;;;;;18.30;70.40;;;;;;5397028;26;1960;-71
2024/04/17 00:52:55;;;;;;;;;;;18.30;70.50;;;;;;5395842;26;1628;-71
2024/04/17 00:55:21;;;;;;;;;;;18.30;70.40;;;;;;5399687;26;1787;-71
2024/04/17 00:57:47;;;;;;;;;;;18.30;70.40;;;;;;5400885;26;1481;-71
2024/04/17 01:00:12;;;;;;;;;;;18.30;70.50;;;;;;5400306;26;1888;-71
2024/04/17 01:02:38;;;;;;;;;;;18.30;70.50;;;;;;5391817;26;2165;-71
2024/04/17 01:05:03;;;;;;;;;;;18.30;70.50;;;;;;5391355;26;1905;-71
2024/04/17 01:07:29;;;;;;;;;;;18.30;70.50;;;;;;5396129;26;2014;-71
2024/04/17 01:09:54;;;;;;;;;;;18.30;70.50;;;;;;5396202;26;1841;-70
2024/04/17 06:05:28;;;;;;;;;;;18.00;71.60;;;;;;5485393;25;2445;-72
2024/04/17 06:07:54;;;;;;;;;;;18.10;71.50;;;;;;5481423;26;1910;-72
2024/04/17 06:10:19;;;;;;;;;;;18.20;71.30;;;;;;5484518;26;1880;-72
2024/04/17 06:12:45;;;;;;;;;;;18.20;71.00;;;;;;5482141;26;1852;-73
2024/04/17 06:15:10;;;;;;;;;;;18.30;70.80;;;;;;5478969;26;2167;-71
2024/04/17 06:17:36;;;;;;;;;;;18.40;70.60;;;;;;5375515;26;6055;-70
2024/04/17 06:20:01;;;;;;;;;;;18.40;70.30;;;;;;5382071;26;6523;-70
2024/04/17 06:22:27;;;;;;;;;;;18.40;70.20;;;;;;5407139;26;6338;-72
2024/04/17 06:24:54;;;;;;;;;;;18.50;70.10;;;;;;5410867;26;5894;-72
2024/04/17 06:27:20;;;;;;;;;;;18.50;70.00;;;;;;5381790;26;2033;-73
2024/04/17 06:29:45;;;;;;;;;;;18.50;69.80;;;;;;5416598;26;1556;-74
2024/04/17 06:32:11;;;;;;;;;;;18.50;69.70;;;;;;5445295;26;2692;-73
2024/04/17 06:34:36;;;;;;;;;;;18.50;69.70;;;;;;5408174;26;1857;-73
2024/04/17 06:37:01;;;;;;;;;;;18.60;69.70;;;;;;5379140;26;1840;-73
2024/04/17 06:39:27;;;;;;;;;;;18.60;69.60;;;;;;5383059;26;1730;-71
2024/04/17 06:41:55;;;;;;;;;;;18.60;69.60;;;;;;5416392;26;1747;-72
2024/04/17 06:44:21;;;;;;;;;;;18.60;69.50;;;;;;5407285;26;1808;-71
2024/04/17 06:46:46;;;;;;;;;;;18.60;69.50;;;;;;5406048;26;2044;-72
2024/04/17 06:49:12;;;;;;;;;;;18.60;69.40;;;;;;5410462;26;1789;-72
2024/04/17 06:51:37;;;;;;;;;;;18.60;69.40;;;;;;5411703;26;1368;-71
2024/04/17 06:54:03;;;;;;;;;;;18.60;69.40;;;;;;5382158;26;1840;-71
2024/04/17 06:56:28;;;;;;;;;;;18.60;69.40;;;;;;5407475;26;1837;-72
2024/04/17 06:58:54;;;;;;;;;;;18.60;69.40;;;;;;5408728;26;1390;-72
2024/04/17 07:01:20;;;;;;;;;;;18.60;69.40;;;;;;5378091;26;1668;-73
2024/04/17 07:03:45;;;;;;;;;;;18.60;69.30;;;;;;5354179;26;1840;-73
2024/04/17 07:06:11;;;;;;;;;;;18.60;69.30;;;;;;5394388;26;1803;-73
2024/04/17 07:08:36;;;;;;;;;;;18.60;69.30;;;;;;5396163;26;1861;-73
2024/04/17 07:11:02;;;;;;;;;;;18.60;69.30;;;;;;5400352;26;1293;-73
2024/04/17 07:13:27;;;;;;;;;;;18.60;69.30;;;;;;5372779;26;1817;-73
2024/04/17 07:15:55;;;;;;;;;;;18.60;69.30;;;;;;5400461;26;1542;-74
2024/04/17 07:18:21;;;;;;;;;;;18.60;69.30;;;;;;5395375;26;1440;-73
2024/04/17 07:20:48;;;;;;;;;;;18.60;69.20;;;;;;5417616;26;1275;-74
2024/04/17 07:23:14;;;;;;;;;;;18.60;69.30;;;;;;5397135;26;1874;-73
2024/04/17 07:25:39;;;;;;;;;;;18.60;69.30;;;;;;5397411;26;1577;-73
2024/04/17 07:28:05;;;;;;;;;;;18.60;69.20;;;;;;5400837;26;1988;-73
2024/04/17 07:30:30;;;;;;;;;;;18.60;69.30;;;;;;5398745;26;1058;-74
2024/04/17 07:32:56;;;;;;;;;;;18.60;69.20;;;;;;5364285;26;1394;-73
2024/04/17 07:35:21;;;;;;;;;;;18.60;69.30;;;;;;5367682;26;1323;-71
2024/04/17 07:37:47;;;;;;;;;;;18.60;69.30;;;;;;5434647;26;1637;-71
2024/04/17 07:40:14;;;;;;;;;;;18.60;69.30;;;;;;5413495;26;1815;-72
2024/04/17 07:42:41;;;;;;;;;;;18.60;69.30;;;;;;5345628;26;1592;-72
2024/04/17 07:45:06;;;;;;;;;;;18.60;69.30;;;;;;5396676;26;1481;-71
2024/04/17 07:47:32;;;;;;;;;;;18.60;69.30;;;;;;5398082;26;1512;-71
2024/04/17 07:49:57;;;;;;;;;;;18.60;69.30;;;;;;5429438;26;1621;-71
2024/04/17 07:52:23;;;;;;;;;;;18.60;69.30;;;;;;5387774;26;1541;-71
2024/04/17 07:54:48;;;;;;;;;;;18.60;69.30;;;;;;5348368;26;1594;-71
2024/04/17 07:57:14;;;;;;;;;;;18.60;69.30;;;;;;5342152;26;1523;-71
2024/04/17 07:59:39;;;;;;;;;;;18.60;69.30;;;;;;5377964;26;1450;-71
2024/04/17 08:02:05;;;;;;;;;;;18.60;69.30;;;;;;5347446;26;1597;-71
2024/04/17 08:04:30;;;;;;;;;;;18.60;69.30;;;;;;5370260;26;1822;-72
2024/04/17 08:06:56;;;;;;;;;;;18.60;69.30;;;;;;5381244;26;1455;-71
2024/04/17 08:09:21;;;;;;;;;;;18.60;69.30;;;;;;5411234;26;1395;-71
2024/04/17 08:11:47;;;;;;;;;;;18.60;69.40;;;;;;5371067;26;1450;-71
2024/04/17 08:14:12;;;;;;;;;;;18.60;69.30;;;;;;5430792;26;828;-71
2024/04/17 08:16:37;;;;;;;;;;;18.60;69.30;;;;;;5374233;26;1197;-71
2024/04/17 08:19:03;;;;;;;;;;;18.60;69.30;;;;;;5380410;26;1125;-72
2024/04/17 08:21:28;;;;;;;;;;;18.60;69.30;;;;;;5376055;26;1407;-72
2024/04/17 08:23:54;;;;;;;;;;;18.60;69.30;;;;;;5394023;26;1825;-72
2024/04/17 08:26:20;;;;;;;;;;;18.60;69.30;;;;;;5397324;26;1180;-72
2024/04/17 08:28:45;;;;;;;;;;;18.60;69.30;;;;;;5405390;26;1955;-72
2024/04/17 08:31:11;;;;;;;;;;;18.60;69.30;;;;;;5366669;26;1894;-72
2024/04/17 08:33:37;;;;;;;;;;;18.60;69.30;;;;;;5396252;26;1323;-71
2024/04/17 08:36:02;;;;;;;;;;;18.60;69.30;;;;;;5398641;26;1223;-71
2024/04/17 08:38:28;;;;;;;;;;;18.60;69.30;;;;;;5414497;26;1481;-72
2024/04/17 08:40:53;;;;;;;;;;;18.60;69.40;;;;;;5368228;26;1053;-72
2024/04/17 08:43:26;;;;;;;;;;;18.60;69.30;;;;;;5415642;26;1856;-72
2024/04/17 08:45:55;;;;;;;;;;;18.60;69.40;;;;;;5406014;26;1173;-72
2024/04/17 08:48:21;;;;;;;;;;;18.60;69.30;;;;;;5377856;26;930;-72
2024/04/17 08:50:46;;;;;;;;;;;18.60;69.30;;;;;;5382236;26;1899;-72
2024/04/17 08:53:15;;;;;;;;;;;18.60;69.30;;;;;;5403930;26;1536;-72
2024/04/17 08:55:41;;;;;;;;;;;18.60;69.30;;;;;;5341426;26;1762;-71
2024/04/17 08:58:06;;;;;;;;;;;18.60;69.30;;;;;;5421800;26;1847;-72
2024/04/17 09:00:32;;;;;;;;;;;18.60;69.30;;;;;;5343016;26;1974;-72
2024/04/17 09:02:57;;;;;;;;;;;18.60;69.30;;;;;;5403451;26;1826;-71
2024/04/17 09:05:23;;;;;;;;;;;18.60;69.30;;;;;;5372773;26;1790;-72
2024/04/17 09:07:49;;;;;;;;;;;18.60;69.20;;;;;;5426953;26;1408;-72
2024/04/17 09:10:15;;;;;;;;;;;18.60;69.20;;;;;;5377618;26;1405;-71
2024/04/17 09:12:44;;;;;;;;;;;18.60;69.20;;;;;;5377487;26;1239;-71
2024/04/17 09:15:13;;;;;;;;;;;18.60;69.20;;;;;;5339616;26;1514;-71
2024/04/17 09:17:38;;;;;;;;;;;18.60;69.20;;;;;;5415859;26;903;-72
2024/04/17 09:20:04;;;;;;;;;;;18.60;69.10;;;;;;5408155;26;1507;-72
2024/04/17 09:22:30;;;;;;;;;;;18.70;69.50;;;;;;5418961;26;1566;-71
2024/04/17 09:24:55;;;;;;;;;;;18.70;69.40;;;;;;5409610;26;1845;-72
2024/04/17 09:27:21;;;;;;;;;;;18.70;69.60;;;;;;5375093;26;1412;-72
2024/04/17 09:29:46;;;;;;;;;;;18.70;69.40;;;;;;5377224;26;1405;-72
2024/04/17 09:32:15;;;;;;;;;;;18.70;69.30;;;;;;5432507;26;1460;-72
2024/04/17 09:34:41;;;;;;;;;;;18.70;69.20;;;;;;5408982;26;1140;-72
2024/04/17 09:37:10;;;;;;;;;;;18.80;69.20;;;;;;5439599;26;1677;-72
2024/04/17 09:39:35;;;;;;;;;;;18.80;69.20;;;;;;5368646;26;1381;-72
2024/04/17 09:42:01;;;;;;;;;;;18.80;69.10;;;;;;5367431;26;1696;-71
2024/04/17 09:44:27;;;;;;;;;;;18.80;69.10;;;;;;5367459;26;1834;-72
2024/04/17 09:46:55;;;;;;;;;;;18.80;69.00;;;;;;5369563;26;1517;-72
2024/04/17 09:49:20;;;;;;;;;;;18.80;68.90;;;;;;5367144;26;1449;-72
2024/04/17 09:51:46;;;;;;;;;;;18.80;68.90;;;;;;5370076;26;1564;-73
2024/04/17 09:54:12;;;;;;;;;;;18.80;68.90;;;;;;5395608;26;1484;-73
2024/04/17 09:56:38;;;;;;;;;;;18.80;68.90;;;;;;5363892;26;1903;-71
2024/04/17 09:59:03;;;;;;;;;;;18.80;68.80;;;;;;5365620;26;1838;-71
2024/04/17 10:01:29;;;;;;;;;;;18.80;68.80;;;;;;5403140;26;1556;-71
2024/04/17 10:03:54;;;;;;;;;;;18.80;68.80;;;;;;5428801;26;1853;-71
2024/04/17 10:06:21;;;;;;;;;;;18.80;68.80;;;;;;5401439;26;1426;-71
2024/04/17 10:08:46;;;;;;;;;;;18.80;68.70;;;;;;5346313;26;1237;-71
2024/04/17 10:11:12;;;;;;;;;;;18.80;68.70;;;;;;5401260;26;1526;-71
2024/04/17 10:13:38;;;;;;;;;;;18.80;68.70;;;;;;5368497;26;1573;-71
2024/04/17 10:16:04;;;;;;;;;;;18.80;68.70;;;;;;5394669;26;1225;-71
2024/04/17 10:18:29;;;;;;;;;;;18.80;68.70;;;;;;5418835;26;1975;-71
2024/04/17 10:20:55;;;;;;;;;;;18.80;68.60;;;;;;5394181;26;1411;-71
2024/04/17 10:23:20;;;;;;;;;;;18.80;68.60;;;;;;5371625;26;1880;-70
2024/04/17 10:25:46;;;;;;;;;;;18.80;68.60;;;;;;5402678;26;1323;-71
2024/04/17 10:28:13;;;;;;;;;;;18.80;68.60;;;;;;5369440;26;1609;-71
2024/04/17 10:30:38;;;;;;;;;;;18.80;68.60;;;;;;5403364;26;1569;-71
2024/04/17 10:33:15;;;;;;;;;;;18.80;68.60;;;;;;5429998;26;1517;-71
2024/04/17 10:35:48;;;;;;;;;;;18.80;68.70;;;;;;5368372;26;1271;-71
2024/04/17 10:38:14;;;;;;;;;;;18.80;68.70;;;;;;5385558;26;1715;-71
2024/04/17 10:40:39;;;;;;;;;;;18.80;68.70;;;;;;5366954;26;1863;-72
2024/04/17 10:43:08;;;;;;;;;;;18.80;68.70;;;;;;5441968;26;1819;-71
2024/04/17 10:45:33;;;;;;;;;;;18.80;68.70;;;;;;5431126;26;1748;-71
2024/04/17 10:48:00;;;;;;;;;;;18.80;68.70;;;;;;5405989;26;1587;-71
2024/04/17 10:50:26;;;;;;;;;;;18.80;68.70;;;;;;5429764;26;1204;-71
2024/04/17 10:52:52;;;;;;;;;;;18.80;68.70;;;;;;5371780;26;1751;-71
2024/04/17 10:55:17;;;;;;;;;;;18.80;68.80;;;;;;5378463;26;1196;-72
2024/04/17 10:57:43;;;;;;;;;;;18.80;68.80;;;;;;5406429;26;1403;-71
2024/04/17 11:00:09;;;;;;;;;;;18.80;68.80;;;;;;5438593;26;1823;-71
2024/04/17 11:02:34;;;;;;;;;;;18.80;68.70;;;;;;5380562;26;1406;-71
2024/04/17 11:05:00;;;;;;;;;;;18.80;68.70;;;;;;5409652;26;1863;-72
2024/04/17 11:07:26;;;;;;;;;;;18.80;68.70;;;;;;5376298;26;847;-72
2024/04/17 11:09:51;;;;;;;;;;;18.80;68.70;;;;;;5403653;26;1817;-71
2024/04/17 11:12:17;;;;;;;;;;;18.80;68.60;;;;;;5369878;26;1243;-71
2024/04/17 11:14:43;;;;;;;;;;;18.80;68.60;;;;;;5430318;26;1504;-71
2024/04/17 11:17:09;;;;;;;;;;;18.80;68.60;;;;;;5350221;26;1333;-72
2024/04/17 11:19:35;;;;;;;;;;;18.80;68.60;;;;;;5404884;26;1037;-71
2024/04/17 11:22:07;;;;;;;;;;;18.80;68.50;;;;;;5366746;26;1788;-71
2024/04/17 11:24:33;;;;;;;;;;;18.80;68.50;;;;;;5427077;26;1822;-71
2024/04/17 11:26:58;;;;;;;;;;;18.80;68.50;;;;;;5401485;26;1933;-71
2024/04/17 11:29:24;;;;;;;;;;;18.90;68.50;;;;;;5373095;26;1470;-71
2024/04/17 11:31:49;;;;;;;;;;;18.80;68.50;;;;;;5427753;26;1508;-71
2024/04/17 11:34:18;;;;;;;;;;;18.90;68.50;;;;;;5362990;26;1814;-71
2024/04/17 11:36:44;;;;;;;;;;;18.90;68.40;;;;;;5392736;26;1747;-71
2024/04/17 11:39:09;;;;;;;;;;;18.90;68.50;;;;;;5389499;26;1921;-72
2024/04/17 11:41:35;;;;;;;;;;;18.90;68.40;;;;;;5364347;26;1755;-72
2024/04/17 11:44:00;;;;;;;;;;;18.90;69.10;;;;;;5398485;26;1825;-71
2024/04/17 11:46:25;;;;;;;;;;;18.90;68.30;;;;;;5395797;26;1624;-72
2024/04/17 11:48:51;;;;;;;;;;;18.90;68.30;;;;;;5390491;26;1867;-73
2024/04/17 11:51:17;;;;;;;;;;;18.90;68.30;;;;;;5363220;26;2425;-72
2024/04/17 11:53:42;;;;;;;;;;;18.90;68.30;;;;;;5394383;26;1673;-73
2024/04/17 11:56:08;;;;;;;;;;;18.90;68.20;;;;;;5359782;26;1835;-72
2024/04/17 11:58:33;;;;;;;;;;;18.90;68.20;;;;;;5377483;26;1756;-72
2024/04/17 12:00:59;;;;;;;;;;;18.90;68.10;;;;;;5380346;26;2563;-72
2024/04/17 12:03:25;;;;;;;;;;;18.90;68.10;;;;;;5359140;26;1899;-72
2024/04/17 12:05:50;;;;;;;;;;;18.90;68.10;;;;;;5392127;26;1777;-73
2024/04/17 12:08:16;;;;;;;;;;;18.90;68.10;;;;;;5391236;26;1864;-72
2024/04/17 12:10:41;;;;;;;;;;;18.90;68.10;;;;;;5370398;26;1744;-72
2024/04/17 12:13:07;;;;;;;;;;;18.90;68.10;;;;;;5390779;26;1865;-73
2024/04/17 12:15:32;;;;;;;;;;;18.90;68.80;;;;;;5362908;26;1756;-72
2024/04/17 12:17:58;;;;;;;;;;;18.90;68.00;;;;;;5388438;26;1840;-71
2024/04/17 12:20:23;;;;;;;;;;;19.00;68.10;;;;;;5392956;26;1556;-72
2024/04/17 12:22:49;;;;;;;;;;;19.00;68.80;;;;;;5408082;26;5472;-72
2024/04/17 12:27:58;;;;;;;;;;;18.90;68.00;;;;;;5378403;26;5559;-73
2024/04/17 12:30:24;;;;;;;;;;;18.90;68.00;;;;;;5394730;26;2939;-73
2024/04/17 12:32:49;;;;;;;;;;;18.90;68.00;;;;;;5391168;26;1425;-72
2024/04/17 12:35:15;;;;;;;;;;;18.90;68.00;;;;;;5397801;26;1455;-73
2024/04/17 12:37:40;;;;;;;;;;;18.90;68.00;;;;;;5396709;26;1432;-74
2024/04/17 12:40:06;;;;;;;;;;;18.90;68.10;;;;;;5420693;26;1450;-73
2024/04/17 12:42:31;;;;;;;;;;;18.90;68.10;;;;;;5388332;26;1368;-73
2024/04/17 12:44:57;;;;;;;;;;;18.90;68.10;;;;;;5390052;26;1826;-73
2024/04/17 12:47:23;;;;;;;;;;;18.90;68.10;;;;;;5391686;26;1410;-73
2024/04/17 12:49:48;;;;;;;;;;;18.90;68.10;;;;;;5392647;26;1463;-73
2024/04/17 12:52:14;;;;;;;;;;;18.90;68.10;;;;;;5349767;26;5430;-73
2024/04/17 12:54:39;;;;;;;;;;;18.90;68.20;;;;;;5394140;26;1840;-74
2024/04/17 12:57:07;;;;;;;;;;;18.90;68.20;;;;;;5367463;26;1956;-73
2024/04/17 12:59:33;;;;;;;;;;;18.90;68.20;;;;;;5366604;26;1750;-74
2024/04/17 13:01:59;;;;;;;;;;;18.90;68.20;;;;;;5366881;26;1906;-73
2024/04/17 13:04:24;;;;;;;;;;;18.90;68.30;;;;;;5423553;26;1870;-73
2024/04/17 13:06:51;;;;;;;;;;;18.90;68.30;;;;;;5418121;26;1870;-74
2024/04/17 13:09:17;;;;;;;;;;;18.90;68.30;;;;;;5392096;26;1967;-70
2024/04/17 13:11:42;;;;;;;;;;;18.90;68.30;;;;;;5392881;26;1418;-73
2024/04/17 13:14:08;;;;;;;;;;;18.90;68.40;;;;;;5387969;26;1742;-73
2024/04/17 13:16:33;;;;;;;;;;;18.90;68.40;;;;;;5359256;26;1778;-73
2024/04/17 13:18:59;;;;;;;;;;;18.90;68.40;;;;;;5397219;26;1612;-73
2024/04/17 13:21:24;;;;;;;;;;;18.80;68.40;;;;;;5419115;26;1629;-73
2024/04/17 13:23:50;;;;;;;;;;;18.80;68.40;;;;;;5396944;26;1885;-73
2024/04/17 13:26:15;;;;;;;;;;;18.80;68.40;;;;;;5386343;26;1767;-73
2024/04/17 13:28:42;;;;;;;;;;;18.80;68.50;;;;;;5387243;26;1790;-73
2024/04/17 13:31:08;;;;;;;;;;;18.80;68.50;;;;;;5417861;26;1749;-73
2024/04/17 13:33:34;;;;;;;;;;;18.80;68.50;;;;;;5398676;26;1866;-72
2024/04/17 13:36:00;;;;;;;;;;;18.80;68.60;;;;;;5372091;26;1423;-72
2024/04/17 13:38:26;;;;;;;;;;;18.80;68.60;;;;;;5371911;26;1757;-72
2024/04/17 13:40:54;;;;;;;;;;;18.80;68.60;;;;;;5400776;26;1448;-72
2024/04/17 13:43:19;;;;;;;;;;;18.80;68.60;;;;;;5396928;26;1813;-72
2024/04/17 13:45:45;;;;;;;;;;;18.80;68.60;;;;;;5398834;26;1946;-73
2024/04/17 13:48:11;;;;;;;;;;;18.80;68.70;;;;;;5399585;26;1390;-72
2024/04/17 13:50:36;;;;;;;;;;;18.80;68.70;;;;;;5372690;26;1443;-72
2024/04/17 13:53:02;;;;;;;;;;;18.80;68.70;;;;;;5401361;26;1297;-72
2024/04/17 13:55:31;;;;;;;;;;;18.80;68.70;;;;;;5369723;26;1438;-72
2024/04/17 13:57:58;;;;;;;;;;;18.80;68.80;;;;;;5369616;26;1561;-72
2024/04/17 14:00:23;;;;;;;;;;;18.80;68.80;;;;;;5378937;26;1545;-73
2024/04/17 14:02:48;;;;;;;;;;;18.80;68.80;;;;;;5377487;26;1931;-73
2024/04/17 14:05:14;;;;;;;;;;;18.80;68.80;;;;;;5389985;26;1277;-73
2024/04/17 14:07:40;;;;;;;;;;;18.80;68.90;;;;;;5396894;26;1447;-71
2024/04/17 14:10:05;;;;;;;;;;;18.80;68.90;;;;;;5396800;26;1981;-72
2024/04/17 14:12:31;;;;;;;;;;;18.70;68.80;;;;;;5368307;26;1514;-74
2024/04/17 14:14:56;;;;;;;;;;;18.70;68.90;;;;;;5421573;26;1908;-73
2024/04/17 14:17:22;;;;;;;;;;;18.70;68.90;;;;;;5403212;26;1473;-72
2024/04/17 14:19:47;;;;;;;;;;;18.70;68.90;;;;;;5397758;26;1551;-73
2024/04/17 14:22:13;;;;;;;;;;;18.70;68.90;;;;;;5411673;26;833;-73
2024/04/17 14:24:38;;;;;;;;;;;18.70;68.90;;;;;;5368232;26;1884;-72
2024/04/17 14:27:04;;;;;;;;;;;18.70;69.00;;;;;;5411944;26;1930;-73
2024/04/17 14:29:29;;;;;;;;;;;18.70;69.00;;;;;;5369680;26;877;-72
2024/04/17 14:31:54;;;;;;;;;;;18.70;69.00;;;;;;5341609;26;1202;-72
2024/04/17 14:34:20;;;;;;;;;;;18.70;69.00;;;;;;5428255;26;968;-72
2024/04/17 14:36:45;;;;;;;;;;;18.70;69.10;;;;;;5396960;26;1901;-72
2024/04/17 14:39:11;;;;;;;;;;;18.70;69.10;;;;;;5405874;26;1488;-72
2024/04/17 14:41:36;;;;;;;;;;;18.70;69.10;;;;;;5373897;26;1881;-72
2024/04/17 14:44:02;;;;;;;;;;;18.70;69.10;;;;;;5421376;26;1885;-72
2024/04/17 14:46:29;;;;;;;;;;;18.70;69.10;;;;;;5426182;26;1489;-73
2024/04/17 14:48:54;;;;;;;;;;;18.70;69.10;;;;;;5395871;26;1795;-73
2024/04/17 14:51:19;;;;;;;;;;;18.70;69.20;;;;;;5367615;26;1780;-72
2024/04/17 14:53:45;;;;;;;;;;;18.60;69.10;;;;;;5393285;26;1957;-73
2024/04/17 14:56:10;;;;;;;;;;;18.70;69.20;;;;;;5429575;26;1627;-73
2024/04/17 14:58:36;;;;;;;;;;;18.70;69.20;;;;;;5421280;26;1941;-73
2024/04/17 15:01:04;;;;;;;;;;;18.60;69.20;;;;;;5362913;26;1905;-73
2024/04/17 15:03:30;;;;;;;;;;;18.60;69.20;;;;;;5397157;26;1826;-73
2024/04/17 15:06:08;;;;;;;;;;;18.70;69.30;;;;;;5361396;26;1946;-73
2024/04/17 15:08:33;;;;;;;;;;;18.70;69.30;;;;;;5369392;26;1954;-73
2024/04/17 15:11:10;;;;;;;;;;;18.70;69.30;;;;;;5368937;26;1903;-73
2024/04/17 15:13:36;;;;;;;;;;;18.60;69.20;;;;;;5397559;26;1895;-73
2024/04/17 15:16:02;;;;;;;;;;;18.60;69.30;;;;;;5370281;26;1762;-73
2024/04/17 15:18:28;;;;;;;;;;;18.60;69.30;;;;;;5406537;26;1175;-72
2024/04/17 15:20:57;;;;;;;;;;;18.60;69.30;;;;;;5398105;26;1294;-72
2024/04/17 15:23:22;;;;;;;;;;;18.60;69.30;;;;;;5368418;26;1882;-73
2024/04/17 15:25:56;;;;;;;;;;;18.60;69.40;;;;;;5395038;26;2051;-73
2024/04/17 15:28:21;;;;;;;;;;;18.60;69.40;;;;;;5391710;26;1431;-73
2024/04/17 15:30:47;;;;;;;;;;;18.60;69.40;;;;;;5341961;26;1889;-73
2024/04/17 15:33:12;;;;;;;;;;;18.60;69.40;;;;;;5396931;26;1999;-73
2024/04/17 15:35:38;;;;;;;;;;;18.60;69.40;;;;;;5343950;26;1915;-73
2024/04/17 15:38:03;;;;;;;;;;;18.60;69.50;;;;;;5393443;26;1782;-73
2024/04/17 15:40:29;;;;;;;;;;;18.60;69.40;;;;;;5368816;26;2028;-73
2024/04/17 15:42:54;;;;;;;;;;;18.60;69.50;;;;;;5390993;26;1871;-74
2024/04/17 15:45:20;;;;;;;;;;;18.60;69.50;;;;;;5391532;26;1886;-74
2024/04/17 15:47:45;;;;;;;;;;;18.60;69.50;;;;;;5361927;26;2007;-72
2024/04/17 15:50:11;;;;;;;;;;;18.60;69.50;;;;;;5370118;26;1717;-73
2024/04/17 15:52:36;;;;;;;;;;;18.60;69.50;;;;;;5391748;26;2121;-70
2024/04/17 15:55:02;;;;;;;;;;;18.60;69.50;;;;;;5386469;26;2057;-70
2024/04/17 15:57:27;;;;;;;;;;;18.60;69.50;;;;;;5389473;26;1772;-70
2024/04/17 15:59:56;;;;;;;;;;;18.50;69.50;;;;;;5418500;26;1763;-70
2024/04/17 16:02:21;;;;;;;;;;;18.60;69.50;;;;;;5396833;26;1738;-72
2024/04/17 16:04:49;;;;;;;;;;;18.60;69.50;;;;;;5391150;26;1962;-69
2024/04/17 16:07:14;;;;;;;;;;;18.60;69.50;;;;;;5361600;26;1903;-71
2024/04/17 16:09:40;;;;;;;;;;;18.60;69.50;;;;;;5362823;26;1795;-71
2024/04/17 16:12:05;;;;;;;;;;;18.60;69.50;;;;;;5398196;26;1947;-71
2024/04/17 16:14:30;;;;;;;;;;;18.60;69.50;;;;;;5395586;26;2131;-74
2024/04/17 16:16:56;;;;;;;;;;;18.60;69.50;;;;;;5364177;26;1803;-73
2024/04/17 16:19:21;;;;;;;;;;;18.60;69.50;;;;;;5372318;26;1697;-71
2024/04/17 16:21:47;;;;;;;;;;;18.60;69.50;;;;;;5395063;26;1923;-70
2024/04/17 16:24:13;;;;;;;;;;;18.60;69.50;;;;;;5392415;26;1817;-72
2024/04/17 16:26:38;;;;;;;;;;;18.60;69.40;;;;;;5405150;26;1703;-73
2024/04/17 16:29:04;;;;;;;;;;;18.60;69.40;;;;;;5396271;26;1898;-74
2024/04/17 16:31:31;;;;;;;;;;;18.60;69.40;;;;;;5399556;26;1383;-72
2024/04/17 16:33:57;;;;;;;;;;;18.60;69.40;;;;;;5378321;26;1763;-74
2024/04/17 16:36:22;;;;;;;;;;;18.60;69.40;;;;;;5392256;26;1519;-75
2024/04/17 16:38:49;;;;;;;;;;;18.60;69.40;;;;;;5376952;26;1967;-74
2024/04/17 16:41:15;;;;;;;;;;;18.60;69.40;;;;;;5363890;26;1837;-74
2024/04/17 16:43:40;;;;;;;;;;;18.60;69.40;;;;;;5419094;26;1903;-73
2024/04/17 16:46:06;;;;;;;;;;;18.60;69.40;;;;;;5360163;26;1924;-73
2024/04/17 16:48:32;;;;;;;;;;;18.60;69.40;;;;;;5339562;26;1948;-74
2024/04/17 16:50:58;;;;;;;;;;;18.60;70.10;;;;;;5395044;26;1872;-74
2024/04/17 16:53:23;;;;;;;;;;;18.60;69.40;;;;;;5393840;26;1682;-70
2024/04/17 16:55:48;;;;;;;;;;;18.60;69.40;;;;;;5392877;26;2121;-72
2024/04/17 16:58:15;;;;;;;;;;;18.60;69.40;;;;;;5395915;26;1671;-71
2024/04/17 17:00:40;;;;;;;;;;;18.60;69.40;;;;;;5393754;26;1870;-71
2024/04/17 17:03:05;;;;;;;;;;;18.60;69.40;;;;;;5394497;26;1926;-70
2024/04/17 17:05:31;;;;;;;;;;;18.60;69.50;;;;;;5396069;26;1933;-71
2024/04/17 17:07:56;;;;;;;;;;;18.60;69.50;;;;;;5369431;26;1502;-74
2024/04/17 17:10:23;;;;;;;;;;;18.60;69.40;;;;;;5366664;26;1668;-74
2024/04/17 17:12:48;;;;;;;;;;;18.60;69.50;;;;;;5361699;26;1756;-73
2024/04/17 17:15:14;;;;;;;;;;;18.60;69.50;;;;;;5365465;26;2171;-74
2024/04/17 17:17:39;;;;;;;;;;;18.60;69.50;;;;;;5364957;26;1922;-73
2024/04/17 17:20:05;;;;;;;;;;;18.60;69.50;;;;;;5395713;26;1748;-74
2024/04/17 17:22:32;;;;;;;;;;;18.60;69.50;;;;;;5416097;26;1931;-73
2024/04/17 17:24:58;;;;;;;;;;;18.60;69.40;;;;;;5359550;26;1999;-74
2024/04/17 17:27:24;;;;;;;;;;;18.60;69.50;;;;;;5357147;26;2643;-74
2024/04/17 17:29:50;;;;;;;;;;;18.60;69.50;;;;;;5363032;26;1423;-73
2024/04/17 17:32:16;;;;;;;;;;;18.60;69.50;;;;;;5407213;26;1464;-73
2024/04/17 17:34:41;;;;;;;;;;;18.60;69.50;;;;;;5398015;26;1701;-72
2024/04/17 17:37:06;;;;;;;;;;;18.60;69.50;;;;;;5395889;26;1763;-73
2024/04/17 17:39:32;;;;;;;;;;;18.60;69.50;;;;;;5370751;26;1622;-72
2024/04/17 17:41:57;;;;;;;;;;;18.60;69.50;;;;;;5402893;26;1532;-72
2024/04/17 17:44:23;;;;;;;;;;;18.60;69.50;;;;;;5379686;26;1825;-72
2024/04/17 17:46:49;;;;;;;;;;;18.60;69.50;;;;;;5392235;26;1568;-71
2024/04/17 17:49:15;;;;;;;;;;;18.60;69.50;;;;;;5407256;26;1482;-71
2024/04/17 17:51:41;;;;;;;;;;;18.60;70.30;;;;;;5394513;26;1279;-71
2024/04/17 17:54:06;;;;;;;;;;;18.60;69.50;;;;;;5421238;26;1441;-71
2024/04/17 17:56:32;;;;;;;;;;;18.60;69.50;;;;;;5365933;26;1374;-73
2024/04/17 17:58:58;;;;;;;;;;;18.60;69.50;;;;;;5376858;26;1402;-73
2024/04/17 18:01:29;;;;;;;;;;;18.60;69.50;;;;;;5342196;26;1750;-72
2024/04/17 18:03:55;;;;;;;;;;;18.50;69.50;;;;;;5387961;26;1880;-72
2024/04/17 18:06:21;;;;;;;;;;;18.60;69.50;;;;;;5390714;26;1500;-74
2024/04/17 18:08:46;;;;;;;;;;;18.60;69.50;;;;;;5412195;26;1367;-74
2024/04/17 18:11:15;;;;;;;;;;;18.60;69.50;;;;;;5369910;26;1056;-74
2024/04/17 18:13:41;;;;;;;;;;;18.60;69.50;;;;;;5343730;26;1405;-74
2024/04/17 18:16:07;;;;;;;;;;;18.60;69.50;;;;;;5371586;26;1568;-71
2024/04/17 18:18:38;;;;;;;;;;;18.60;69.50;;;;;;5393037;26;1478;-72
2024/04/17 18:21:16;;;;;;;;;;;18.60;69.50;;;;;;5390387;26;1645;-72
2024/04/17 18:23:42;;;;;;;;;;;18.60;70.20;;;;;;5404563;26;1868;-72
2024/04/17 18:26:16;;;;;;;;;;;18.60;69.50;;;;;;5368988;26;1741;-72
2024/04/17 18:28:42;;;;;;;;;;;18.60;69.50;;;;;;5392548;26;1406;-72
2024/04/17 18:31:07;;;;;;;;;;;18.60;69.40;;;;;;5372900;26;1379;-72
2024/04/17 18:33:37;;;;;;;;;;;18.60;69.50;;;;;;5391502;26;1636;-72
2024/04/17 18:36:03;;;;;;;;;;;18.60;69.50;;;;;;5379915;26;1349;-72
2024/04/17 18:38:28;;;;;;;;;;;18.60;69.50;;;;;;5395573;26;1588;-72
2024/04/17 18:41:10;;;;;;;;;;;18.60;69.50;;;;;;5426550;26;1578;-72
2024/04/17 18:43:36;;;;;;;;;;;18.60;69.50;;;;;;5399318;26;1825;-71
2024/04/17 18:46:01;;;;;;;;;;;18.60;69.40;;;;;;5429058;26;1647;-71
2024/04/17 18:48:27;;;;;;;;;;;18.60;69.50;;;;;;5408013;26;1903;-72
2024/04/17 18:50:52;;;;;;;;;;;18.60;69.50;;;;;;5395233;26;1394;-72
2024/04/17 18:53:17;;;;;;;;;;;18.60;69.50;;;;;;5404304;26;1818;-72
2024/04/17 18:55:43;;;;;;;;;;;18.60;69.50;;;;;;5342564;26;1407;-72
2024/04/17 18:58:12;;;;;;;;;;;18.60;69.50;;;;;;5404887;26;1780;-71
2024/04/17 19:00:38;;;;;;;;;;;18.60;69.50;;;;;;5347539;26;1682;-72
2024/04/17 19:03:04;;;;;;;;;;;18.60;69.50;;;;;;5348371;26;1868;-72
2024/04/17 19:05:29;;;;;;;;;;;18.60;69.50;;;;;;5394012;26;1929;-73
2024/04/17 19:07:55;;;;;;;;;;;18.60;69.50;;;;;;5393711;26;1406;-72
2024/04/17 19:10:21;;;;;;;;;;;18.60;69.50;;;;;;5397422;26;1947;-72
2024/04/17 19:12:48;;;;;;;;;;;18.60;69.50;;;;;;5366913;26;2019;-73
2024/04/17 19:15:16;;;;;;;;;;;18.60;69.50;;;;;;5396146;26;1978;-73
2024/04/17 19:17:41;;;;;;;;;;;18.60;69.50;;;;;;5396222;26;1725;-72
2024/04/17 19:20:07;;;;;;;;;;;18.60;69.50;;;;;;5392473;26;1963;-73